createdAt,value
2018-04-14T00:01:15.495Z,83.50
2018-04-14T00:03:43.639Z,83.30
2018-04-14T00:06:12.580Z,83.10
2018-04-14T00:08:41.538Z,83.00
2018-04-14T00:11:09.707Z,83.00
2018-04-14T00:13:38.619Z,83.50
2018-04-14T00:16:06.788Z,83.50
2018-04-14T00:18:35.004Z,83.20
2018-04-14T00:21:03.179Z,81.50
2018-04-14T00:23:31.345Z,82.60
2018-04-14T00:25:59.506Z,83.10
2018-04-14T00:28:27.703Z,83.40
2018-04-14T00:30:55.851Z,84.90
2018-04-14T00:33:24.028Z,83.90
2018-04-14T00:35:52.179Z,84.00
2018-04-14T00:38:20.419Z,83.80
2018-04-14T00:40:48.559Z,83.60
2018-04-14T00:43:16.739Z,83.40
2018-04-14T00:45:44.879Z,83.20
2018-04-14T00:48:13.138Z,82.60
2018-04-14T00:50:42.039Z,82.20
2018-04-14T00:53:22.084Z,82.20
2018-04-14T00:55:50.224Z,83.20
2018-04-14T00:58:18.530Z,84.00
2018-04-14T01:00:46.692Z,83.40
2018-04-14T01:03:14.885Z,84.50
2018-04-14T01:05:43.044Z,84.50
2018-04-14T01:08:11.330Z,84.10
2018-04-14T01:10:39.499Z,84.40
2018-04-14T01:13:07.683Z,85.40
2018-04-14T01:15:35.863Z,85.30
2018-04-14T01:18:04.134Z,85.30
2018-04-14T01:20:32.306Z,84.70
2018-04-14T01:23:00.506Z,84.90
2018-04-14T01:25:28.678Z,84.00
2018-04-14T01:27:56.861Z,83.70
2018-04-14T01:30:25.035Z,83.20
2018-04-14T01:32:53.223Z,84.30
2018-04-14T01:35:21.390Z,84.10
2018-04-14T01:37:49.575Z,83.40
2018-04-14T01:40:17.742Z,84.30
2018-04-14T01:42:45.943Z,84.40
2018-04-14T01:45:14.883Z,83.40
2018-04-14T01:47:43.154Z,83.40
2018-04-14T01:50:11.325Z,82.60
2018-04-14T01:52:39.498Z,83.00
2018-04-14T01:55:07.678Z,84.90
2018-04-14T01:57:35.939Z,84.90
2018-04-14T02:00:04.130Z,84.70
2018-04-14T02:02:32.305Z,84.10
2018-04-14T02:05:00.499Z,84.20
2018-04-14T02:07:28.742Z,84.80
2018-04-14T02:09:56.932Z,84.00
2018-04-14T02:12:25.103Z,84.80
2018-04-14T02:14:53.293Z,83.60
2018-04-14T02:17:21.532Z,84.80
2018-04-14T02:19:49.730Z,85.10
2018-04-14T02:22:17.911Z,85.20
2018-04-14T02:24:46.107Z,85.40
2018-04-14T02:27:14.380Z,86.10
2018-04-14T02:29:42.570Z,86.20
2018-04-14T02:32:11.519Z,84.80
2018-04-14T02:34:39.835Z,84.70
2018-04-14T02:37:08.655Z,85.20
2018-04-14T02:39:36.849Z,86.20
2018-04-14T02:42:05.024Z,85.50
2018-04-14T02:44:33.231Z,85.20
2018-04-14T02:47:01.473Z,85.90
2018-04-14T02:49:29.662Z,85.40
2018-04-14T02:51:57.845Z,85.20
2018-04-14T02:54:26.052Z,85.00
2018-04-14T02:56:54.276Z,85.50
2018-04-14T02:59:22.475Z,84.80
2018-04-14T03:01:50.645Z,85.00
2018-04-14T03:04:18.817Z,86.00
2018-04-14T03:06:47.062Z,84.60
2018-04-14T03:09:15.257Z,85.20
2018-04-14T03:11:43.442Z,86.10
2018-04-14T03:14:11.633Z,86.90
2018-04-14T03:16:40.023Z,87.00
2018-04-14T03:19:08.220Z,86.70
2018-04-14T03:21:37.166Z,86.70
2018-04-14T03:24:05.362Z,86.70
2018-04-14T03:26:33.579Z,86.70
2018-04-14T03:29:01.777Z,86.40
2018-04-14T03:31:29.982Z,86.10
2018-04-14T03:33:58.154Z,86.70
2018-04-14T03:36:26.411Z,86.50
2018-04-14T03:38:54.587Z,86.00
2018-04-14T03:41:22.776Z,86.40
2018-04-14T03:43:50.959Z,86.90
2018-04-14T03:46:19.207Z,85.90
2018-04-14T03:48:47.397Z,85.40
2018-04-14T03:51:15.578Z,85.00
2018-04-14T03:53:43.754Z,85.40
2018-04-14T03:56:12.104Z,85.80
2018-04-14T03:58:40.277Z,85.80
2018-04-14T04:01:08.474Z,87.30
2018-04-14T04:03:36.671Z,86.90
2018-04-14T04:06:04.892Z,86.50
2018-04-14T04:08:33.062Z,86.30
2018-04-14T04:11:01.270Z,86.50
2018-04-14T04:13:29.445Z,86.50
2018-04-14T04:15:58.105Z,86.90
2018-04-14T04:18:38.222Z,86.60
2018-04-14T04:21:19.241Z,85.90
2018-04-14T04:23:59.407Z,85.90
2018-04-14T04:26:27.671Z,86.10
2018-04-14T04:28:56.715Z,86.20
2018-04-14T04:31:24.910Z,86.90
2018-04-14T04:33:53.842Z,86.00
2018-04-14T04:36:22.132Z,86.00
2018-04-14T04:38:50.324Z,86.60
2018-04-14T04:41:18.519Z,86.90
2018-04-14T04:43:47.459Z,86.60
2018-04-14T04:46:15.733Z,86.60
2018-04-14T04:48:43.966Z,87.90
2018-04-14T04:51:12.125Z,88.20
2018-04-14T04:53:41.069Z,87.70
2018-04-14T04:56:09.283Z,87.70
2018-04-14T04:58:38.964Z,87.50
2018-04-14T05:01:07.154Z,87.50
2018-04-14T05:03:35.327Z,87.10
2018-04-14T05:06:03.658Z,86.50
2018-04-14T05:08:31.857Z,85.50
2018-04-14T05:11:00.062Z,85.60
2018-04-14T05:13:28.254Z,86.70
2018-04-14T05:15:57.200Z,87.60
2018-04-14T05:18:25.402Z,87.60
2018-04-14T05:20:53.590Z,88.20
2018-04-14T05:23:22.554Z,88.00
2018-04-14T05:25:50.727Z,87.80
2018-04-14T05:28:18.928Z,87.90
2018-04-14T05:30:47.117Z,85.90
2018-04-14T05:33:16.069Z,86.30
2018-04-14T05:35:44.310Z,86.30
2018-04-14T05:38:12.507Z,87.00
2018-04-14T05:40:40.685Z,87.30
2018-04-14T05:43:08.887Z,88.20
2018-04-14T05:45:37.116Z,87.20
2018-04-14T05:48:05.310Z,87.10
2018-04-14T05:50:33.498Z,87.60
2018-04-14T05:53:01.694Z,87.60
2018-04-14T05:55:29.901Z,87.80
2018-04-14T05:57:58.109Z,88.20
2018-04-14T06:00:26.286Z,88.30
2018-04-14T06:02:54.474Z,88.20
2018-04-14T06:05:22.733Z,88.20
2018-04-14T06:07:50.922Z,88.20
2018-04-14T06:10:19.102Z,88.30
2018-04-14T06:12:47.303Z,88.50
2018-04-14T06:15:15.658Z,88.50
2018-04-14T06:17:43.857Z,88.00
2018-04-14T06:20:12.800Z,88.90
2018-04-14T06:22:40.998Z,88.90
2018-04-14T06:25:09.230Z,88.90
2018-04-14T06:27:37.406Z,88.30
2018-04-14T06:30:05.602Z,87.90
2018-04-14T06:32:33.793Z,88.50
2018-04-14T06:35:03.423Z,87.30
2018-04-14T06:37:31.611Z,87.60
2018-04-14T06:40:00.561Z,85.40
2018-04-14T06:42:28.741Z,85.30
2018-04-14T06:44:57.019Z,84.20
2018-04-14T06:47:25.210Z,83.10
2018-04-14T06:49:53.416Z,82.80
2018-04-14T06:52:21.582Z,82.00
2018-04-14T06:54:49.810Z,80.90
2018-04-14T06:57:17.983Z,81.70
2018-04-14T06:59:46.178Z,81.10
2018-04-14T07:02:14.358Z,80.80
2018-04-14T07:04:43.556Z,80.00
2018-04-14T07:07:11.742Z,79.20
2018-04-14T07:09:40.710Z,77.50
2018-04-14T07:12:08.899Z,77.50
2018-04-14T07:14:37.138Z,74.60
2018-04-14T07:17:05.322Z,70.30
2018-04-14T07:19:33.511Z,70.20
2018-04-14T07:22:01.682Z,70.10
2018-04-14T07:24:29.886Z,66.60
2018-04-14T07:26:58.824Z,63.20
2018-04-14T07:29:27.019Z,63.20
2018-04-14T07:31:55.192Z,64.40
2018-04-14T07:34:23.664Z,66.30
2018-04-14T07:36:51.840Z,64.50
2018-04-14T07:39:20.026Z,64.90
2018-04-14T07:41:48.203Z,64.00
2018-04-14T07:44:16.492Z,63.70
2018-04-14T07:46:44.647Z,63.30
2018-04-14T07:49:12.855Z,63.60
2018-04-14T07:51:41.847Z,61.50
2018-04-14T07:54:10.034Z,61.50
2018-04-14T07:56:38.230Z,62.30
2018-04-14T07:59:06.403Z,59.10
2018-04-14T08:01:34.598Z,60.00
2018-04-14T08:04:10.526Z,58.10
2018-04-14T08:06:48.492Z,58.30
2018-04-14T08:09:21.455Z,57.10
2018-04-14T08:12:04.603Z,57.50
2018-04-14T08:14:32.945Z,56.90
2018-04-14T08:17:05.624Z,56.30
2018-04-14T08:19:39.583Z,56.20
2018-04-14T08:22:13.963Z,55.40
2018-04-14T08:24:44.748Z,55.10
2018-04-14T08:27:12.907Z,55.10
2018-04-14T08:29:41.076Z,54.30
2018-04-14T08:32:11.470Z,54.40
2018-04-14T08:34:42.492Z,54.40
2018-04-14T08:37:11.610Z,55.30
2018-04-14T08:39:39.881Z,54.40
2018-04-14T08:42:08.077Z,54.40
2018-04-14T08:44:37.054Z,52.60
2018-04-14T08:47:05.263Z,52.60
2018-04-14T08:49:33.461Z,54.30
2018-04-14T08:52:02.895Z,54.20
2018-04-14T08:54:31.099Z,53.00
2018-04-14T08:56:59.316Z,53.30
2018-04-14T08:59:27.496Z,50.50
2018-04-14T09:01:55.734Z,50.20
2018-04-14T09:04:24.684Z,50.30
2018-04-14T09:06:52.889Z,50.20
2018-04-14T09:09:21.078Z,51.30
2018-04-14T09:11:50.057Z,48.90
2018-04-14T09:14:19.019Z,49.50
2018-04-14T09:16:47.217Z,49.50
2018-04-14T09:19:15.402Z,50.70
2018-04-14T09:21:44.361Z,48.00
2018-04-14T09:24:12.540Z,47.30
2018-04-14T09:26:40.738Z,50.50
2018-04-14T09:29:10.419Z,47.60
2018-04-14T09:31:38.617Z,48.00
2018-04-14T09:34:07.587Z,46.20
2018-04-14T09:36:35.799Z,46.10
2018-04-14T09:39:03.978Z,46.60
2018-04-14T09:41:32.174Z,45.40
2018-04-14T09:44:00.354Z,43.40
2018-04-14T09:46:30.419Z,45.30
2018-04-14T09:48:58.602Z,45.30
2018-04-14T09:51:26.808Z,44.30
2018-04-14T09:53:55.022Z,46.70
2018-04-14T09:56:23.233Z,45.70
2018-04-14T09:58:51.406Z,44.10
2018-04-14T10:01:25.339Z,45.50
2018-04-14T10:03:54.333Z,48.90
2018-04-14T10:06:22.518Z,50.90
2018-04-14T10:08:50.701Z,49.40
2018-04-14T10:11:18.882Z,49.50
2018-04-14T10:13:47.210Z,50.20
2018-04-14T10:16:15.389Z,50.50
2018-04-14T10:18:43.583Z,49.60
2018-04-14T10:21:11.758Z,53.20
2018-04-14T10:23:39.984Z,53.70
2018-04-14T10:26:08.161Z,51.20
2018-04-14T10:28:36.366Z,54.20
2018-04-14T10:31:05.311Z,53.90
2018-04-14T10:33:33.534Z,54.00
2018-04-14T10:36:02.491Z,54.50
2018-04-14T10:38:30.697Z,54.30
2018-04-14T10:40:59.659Z,55.00
2018-04-14T10:43:27.922Z,55.00
2018-04-14T10:45:56.107Z,50.80
2018-04-14T10:48:24.306Z,47.30
2018-04-14T10:50:52.484Z,50.90
2018-04-14T10:53:20.734Z,49.70
2018-04-14T10:55:48.995Z,48.40
2018-04-14T10:58:17.113Z,49.40
2018-04-14T11:00:46.054Z,51.20
2018-04-14T11:03:14.253Z,51.30
2018-04-14T11:05:42.450Z,51.60
2018-04-14T11:08:10.646Z,50.80
2018-04-14T11:10:38.826Z,49.70
2018-04-14T11:13:07.053Z,46.40
2018-04-14T11:15:35.239Z,45.60
2018-04-14T11:18:03.435Z,47.70
2018-04-14T11:20:32.413Z,38.20
2018-04-14T11:23:00.578Z,38.10
2018-04-14T11:25:28.754Z,36.00
2018-04-14T11:27:56.960Z,39.20
2018-04-14T11:30:25.142Z,40.20
2018-04-14T11:32:53.383Z,34.50
2018-04-14T11:35:21.558Z,36.50
2018-04-14T11:37:49.723Z,32.70
2018-04-14T11:40:17.927Z,30.20
2018-04-14T11:42:46.867Z,32.30
2018-04-14T11:45:15.070Z,32.40
2018-04-14T11:47:43.255Z,29.60
2018-04-14T11:50:12.214Z,32.70
2018-04-14T11:52:41.197Z,33.10
2018-04-14T11:55:09.415Z,33.70
2018-04-14T11:57:38.369Z,33.30
2018-04-14T12:00:06.566Z,33.40
2018-04-14T12:02:34.738Z,34.90
2018-04-14T12:05:02.934Z,33.40
2018-04-14T12:07:31.874Z,33.80
2018-04-14T12:10:00.062Z,33.80
2018-04-14T12:12:28.402Z,29.50
2018-04-14T12:14:56.594Z,29.20
2018-04-14T12:17:24.771Z,31.30
2018-04-14T12:19:52.967Z,31.70
2018-04-14T12:22:21.158Z,29.80
2018-04-14T12:24:49.362Z,34.10
2018-04-14T12:27:17.530Z,34.80
2018-04-14T12:29:46.500Z,27.60
2018-04-14T12:32:15.446Z,28.50
2018-04-14T12:34:43.641Z,28.50
2018-04-14T12:37:13.030Z,30.20
2018-04-14T12:39:41.235Z,30.20
2018-04-14T12:42:09.419Z,31.40
2018-04-14T12:44:37.606Z,33.90
2018-04-14T12:47:06.541Z,31.40
2018-04-14T12:49:34.739Z,31.40
2018-04-14T12:52:02.939Z,29.40
2018-04-14T12:54:31.219Z,30.00
2018-04-14T12:56:59.406Z,27.70
2018-04-14T12:59:28.345Z,28.60
2018-04-14T13:01:56.542Z,28.60
2018-04-14T13:04:24.731Z,28.20
2018-04-14T13:06:52.914Z,28.20
2018-04-14T13:09:21.850Z,28.30
2018-04-14T13:11:50.058Z,28.30
2018-04-14T13:14:18.234Z,29.40
2018-04-14T13:16:46.426Z,27.70
2018-04-14T13:19:15.374Z,29.80
2018-04-14T13:21:43.570Z,29.70
2018-04-14T13:24:11.751Z,26.00
2018-04-14T13:26:39.948Z,29.20
2018-04-14T13:29:08.889Z,29.10
2018-04-14T13:31:37.158Z,29.10
2018-04-14T13:34:05.342Z,29.60
2018-04-14T13:36:33.538Z,29.40
2018-04-14T13:39:01.710Z,29.20
2018-04-14T13:41:29.920Z,27.90
2018-04-14T13:43:58.842Z,29.00
2018-04-14T13:46:27.043Z,29.00
2018-04-14T13:48:55.233Z,30.80
2018-04-14T13:51:23.422Z,28.70
2018-04-14T13:53:52.371Z,27.70
2018-04-14T13:56:20.571Z,27.60
2018-04-14T13:58:48.742Z,30.20
2018-04-14T14:01:16.946Z,29.20
2018-04-14T14:03:45.900Z,31.80
2018-04-14T14:06:14.105Z,31.80
2018-04-14T14:08:43.042Z,29.80
2018-04-14T14:11:11.221Z,29.80
2018-04-14T14:13:39.423Z,29.90
2018-04-14T14:16:07.602Z,31.30
2018-04-14T14:18:35.793Z,31.60
2018-04-14T14:21:03.990Z,31.70
2018-04-14T14:23:32.179Z,32.80
2018-04-14T14:26:00.359Z,31.30
2018-04-14T14:28:28.674Z,34.30
2018-04-14T14:30:57.638Z,32.90
2018-04-14T14:33:25.838Z,32.90
2018-04-14T14:35:54.013Z,31.90
2018-04-14T14:38:22.995Z,32.60
2018-04-14T14:40:51.168Z,32.60
2018-04-14T14:43:19.368Z,34.00
2018-04-14T14:45:48.318Z,29.60
2018-04-14T14:48:16.514Z,29.60
2018-04-14T14:50:44.699Z,31.30
2018-04-14T14:53:12.886Z,34.30
2018-04-14T14:55:41.840Z,31.80
2018-04-14T14:58:10.019Z,31.70
2018-04-14T15:00:38.203Z,31.60
2018-04-14T15:03:06.400Z,32.80
2018-04-14T15:05:35.345Z,33.00
2018-04-14T15:08:03.534Z,33.00
2018-04-14T15:10:31.715Z,32.70
2018-04-14T15:12:59.917Z,33.40
2018-04-14T15:15:28.858Z,32.80
2018-04-14T15:17:57.050Z,32.70
2018-04-14T15:20:25.223Z,34.50
2018-04-14T15:22:53.427Z,33.60
2018-04-14T15:25:22.376Z,33.00
2018-04-14T15:27:50.570Z,33.00
2018-04-14T15:30:18.803Z,33.80
2018-04-14T15:32:47.025Z,34.70
2018-04-14T15:35:15.210Z,35.00
2018-04-14T15:37:44.151Z,34.90
2018-04-14T15:40:12.441Z,34.80
2018-04-14T15:42:40.611Z,33.70
2018-04-14T15:45:08.819Z,35.10
2018-04-14T15:47:36.973Z,33.60
2018-04-14T15:50:05.186Z,33.50
2018-04-14T15:52:34.175Z,34.70
2018-04-14T15:55:02.335Z,34.70
2018-04-14T15:57:30.512Z,34.20
2018-04-14T15:59:58.758Z,35.00
2018-04-14T16:02:26.934Z,34.90
2018-04-14T16:04:55.132Z,34.70
2018-04-14T16:07:23.305Z,34.80
2018-04-14T16:09:52.286Z,34.00
2018-04-14T16:12:20.462Z,34.00
2018-04-14T16:14:48.664Z,34.20
2018-04-14T16:17:17.602Z,34.80
2018-04-14T16:19:46.599Z,33.40
2018-04-14T16:22:14.790Z,33.40
2018-04-14T16:24:42.982Z,34.10
2018-04-14T16:27:11.309Z,35.00
2018-04-14T16:29:39.753Z,35.10
2018-04-14T16:32:07.920Z,35.60
2018-04-14T16:34:36.109Z,36.10
2018-04-14T16:37:05.059Z,35.90
2018-04-14T16:39:33.270Z,35.80
2018-04-14T16:42:02.214Z,34.90
2018-04-14T16:44:30.422Z,34.90
2018-04-14T16:46:58.599Z,35.70
2018-04-14T16:49:27.587Z,37.00
2018-04-14T16:51:55.768Z,37.00
2018-04-14T16:54:23.969Z,36.40
2018-04-14T16:56:52.901Z,37.00
2018-04-14T16:59:21.363Z,36.30
2018-04-14T17:01:49.560Z,36.80
2018-04-14T17:04:17.742Z,37.80
2018-04-14T17:06:45.954Z,36.90
2018-04-14T17:09:14.910Z,39.30
2018-04-14T17:11:43.109Z,39.30
2018-04-14T17:14:11.284Z,38.10
2018-04-14T17:16:39.478Z,38.10
2018-04-14T17:19:07.666Z,39.40
2018-04-14T17:21:35.862Z,40.00
2018-04-14T17:24:04.039Z,39.80
2018-04-14T17:26:32.241Z,38.50
2018-04-14T17:29:00.527Z,38.30
2018-04-14T17:31:29.495Z,38.30
2018-04-14T17:33:57.678Z,38.30
2018-04-14T17:36:25.893Z,39.30
2018-04-14T17:38:54.081Z,39.40
2018-04-14T17:41:22.290Z,39.00
2018-04-14T17:43:50.475Z,38.40
2018-04-14T17:46:18.682Z,39.20
2018-04-14T17:48:46.890Z,39.70
2018-04-14T17:51:15.095Z,40.10
2018-04-14T17:53:43.276Z,40.20
2018-04-14T17:56:11.482Z,41.50
2018-04-14T17:58:39.684Z,40.30
2018-04-14T18:01:07.882Z,41.00
2018-04-14T18:03:36.062Z,42.10
2018-04-14T18:06:04.273Z,42.90
2018-04-14T18:08:32.501Z,42.70
2018-04-14T18:11:00.708Z,42.40
2018-04-14T18:13:28.891Z,42.90
2018-04-14T18:15:57.066Z,45.20
2018-04-14T18:18:25.301Z,44.70
2018-04-14T18:20:53.479Z,44.70
2018-04-14T18:23:21.679Z,44.80
2018-04-14T18:25:49.854Z,45.30
2018-04-14T18:28:18.115Z,45.90
2018-04-14T18:30:46.295Z,47.00
2018-04-14T18:33:14.499Z,46.30
2018-04-14T18:35:43.476Z,48.80
2018-04-14T18:38:11.721Z,48.80
2018-04-14T18:40:39.943Z,51.10
2018-04-14T18:43:08.901Z,49.20
2018-04-14T18:45:37.078Z,49.20
2018-04-14T18:48:05.581Z,48.40
2018-04-14T18:50:33.755Z,50.60
2018-04-14T18:53:01.966Z,50.60
2018-04-14T18:55:30.899Z,50.30
2018-04-14T18:57:59.100Z,50.20
2018-04-14T19:00:28.040Z,50.20
2018-04-14T19:02:56.238Z,50.20
2018-04-14T19:05:24.411Z,50.50
2018-04-14T19:07:52.683Z,52.80
2018-04-14T19:10:20.861Z,51.60
2018-04-14T19:12:49.049Z,52.00
2018-04-14T19:15:17.230Z,51.40
2018-04-14T19:17:45.474Z,51.50
2018-04-14T19:20:13.646Z,52.30
2018-04-14T19:25:16.363Z,54.90
2018-04-14T19:27:44.828Z,53.40
2018-04-14T19:30:13.002Z,52.70
2018-04-14T19:32:41.190Z,53.20
2018-04-14T19:35:09.372Z,54.80
2018-04-14T19:37:37.646Z,55.70
2018-04-14T19:40:05.806Z,56.90
2018-04-14T19:42:33.983Z,59.40
2018-04-14T19:45:02.182Z,58.00
2018-04-14T19:47:30.412Z,56.00
2018-04-14T19:49:58.612Z,54.40
2018-04-14T19:52:26.815Z,53.10
2018-04-14T19:54:55.093Z,53.80
2018-04-14T19:57:23.319Z,52.60
2018-04-14T19:59:51.519Z,52.00
2018-04-14T20:02:19.696Z,54.40
2018-04-14T20:04:47.886Z,55.00
2018-04-14T20:07:16.098Z,53.80
2018-04-14T20:09:44.334Z,55.30
2018-04-14T20:12:12.518Z,56.60
2018-04-14T20:14:40.710Z,57.30
2018-04-14T20:17:08.916Z,55.80
2018-04-14T20:19:37.156Z,56.50
2018-04-14T20:22:05.298Z,54.40
2018-04-14T20:24:33.496Z,57.60
2018-04-14T20:27:01.698Z,57.90
2018-04-14T20:29:29.892Z,57.60
2018-04-14T20:31:58.073Z,56.10
2018-04-14T20:34:26.258Z,57.60
2018-04-14T20:36:54.506Z,58.30
2018-04-14T20:39:22.703Z,57.30
2018-04-14T20:41:50.880Z,57.40
2018-04-14T20:44:19.078Z,59.70
2018-04-14T20:46:47.359Z,60.40
2018-04-14T20:49:15.519Z,59.70
2018-04-14T20:51:43.690Z,60.40
2018-04-14T20:54:11.896Z,60.50
2018-04-14T20:56:40.202Z,61.60
2018-04-14T20:59:08.390Z,61.70
2018-04-14T21:01:36.569Z,60.70
2018-04-14T21:04:04.767Z,63.00
2018-04-14T21:06:33.010Z,63.40
2018-04-14T21:09:01.199Z,63.10
2018-04-14T21:11:29.379Z,62.20
2018-04-14T21:13:57.575Z,61.30
2018-04-14T21:16:25.794Z,62.60
2018-04-14T21:18:53.997Z,63.70
2018-04-14T21:21:22.184Z,64.30
2018-04-14T21:23:50.358Z,62.00
2018-04-14T21:26:18.570Z,62.30
2018-04-14T21:28:47.502Z,62.30
2018-04-14T21:31:15.698Z,61.80
2018-04-14T21:33:43.871Z,61.10
2018-04-14T21:36:12.132Z,61.80
2018-04-14T21:38:40.317Z,62.70
2018-04-14T21:41:08.570Z,64.80
2018-04-14T21:43:36.682Z,64.10
2018-04-14T21:46:05.800Z,64.60
2018-04-14T21:48:34.774Z,64.60
2018-04-14T21:51:02.980Z,64.00
2018-04-14T21:53:31.914Z,64.90
2018-04-14T21:56:00.184Z,64.90
2018-04-14T21:58:28.357Z,66.60
2018-04-14T22:00:56.551Z,66.00
2018-04-14T22:03:24.737Z,66.20
2018-04-14T22:05:52.986Z,66.60
2018-04-14T22:08:21.159Z,67.80
2018-04-14T22:10:49.363Z,67.40
2018-04-14T22:13:18.055Z,66.70
2018-04-14T22:15:46.309Z,67.50
2018-04-14T22:18:14.487Z,66.60
2018-04-14T22:20:42.793Z,67.40
2018-04-14T22:23:10.955Z,67.40
2018-04-14T22:25:39.207Z,67.80
2018-04-14T22:28:07.374Z,67.00
2018-04-14T22:30:35.562Z,67.20
2018-04-14T22:33:03.738Z,66.60
2018-04-14T22:35:31.998Z,65.30
2018-04-14T22:38:00.194Z,65.10
2018-04-14T22:40:28.402Z,67.80
2018-04-14T22:42:57.341Z,68.50
2018-04-14T22:45:25.807Z,68.50
2018-04-14T22:47:53.999Z,69.10
2018-04-14T22:50:22.174Z,68.00
2018-04-14T22:52:50.365Z,68.30
2018-04-14T22:55:18.802Z,70.10
2018-04-14T22:57:46.998Z,70.20
2018-04-14T23:00:15.210Z,71.00
2018-04-14T23:02:43.414Z,69.60
2018-04-14T23:05:11.693Z,70.00
2018-04-14T23:07:40.659Z,70.90
2018-04-14T23:10:08.835Z,70.80
2018-04-14T23:12:37.027Z,70.40
2018-04-14T23:15:05.218Z,71.00
2018-04-14T23:17:33.415Z,71.30
2018-04-14T23:20:01.595Z,71.90
2018-04-14T23:22:29.796Z,70.90
2018-04-14T23:24:58.014Z,70.20
2018-04-14T23:27:26.210Z,71.80
2018-04-14T23:29:54.379Z,72.90
2018-04-14T23:32:22.583Z,73.70
2018-04-14T23:34:50.809Z,74.30
2018-04-14T23:37:18.998Z,73.40
2018-04-14T23:39:47.222Z,71.90
2018-04-14T23:42:15.424Z,72.30
2018-04-14T23:44:44.367Z,72.10
2018-04-14T23:47:12.558Z,72.10
2018-04-14T23:49:40.733Z,73.30
2018-04-14T23:52:08.930Z,73.90
2018-04-14T23:54:37.140Z,73.40
2018-04-14T23:57:05.329Z,72.50
2018-04-14T23:59:33.503Z,72.20
